East Ely, Nevada
Current Conditions -  °F | °C
As of 2:53 PM on Friday 19 Dec 2014 (Local Time) from KELY Reporting Station
Overcast Overcast  
Wind Chill: 40°   Ceiling: 11000
Heat Index: 43°   Visibility: 10mi
Dew Point: 26°   Wind: 5mph
Humidity: 51%   Direction: 220°SW
Pressure: 30.11"   Gusts: NA
Location:  39.25°N, 114.87°W
Report Text: KELY 192253Z AUTO 22004KT 10SM OVC110 06/M03 A3011 RMK AO2 SLP205 T00611033
Loading
Personal Weather Stations






























Interactive Weather Map New forecast layout! Learn more

10-Day Weather Forecast

Advertisements
Track Severe Weather on mobile